Terminal Aerodrome Forecast
Issued by NWS Sioux Falls, SD

Home | Current Version | Previous Version | Graphics & Text | Print | Product List | Glossary On
Versions: 1 2 3 4 5 6 7 8 9 10 11 12 13 14 15 16 17 18
362
FTUS43 KFSD 280520
TAFFSD
TAF
KFSD 280520Z 2806/2906 02004KT P6SM SCT045
     FM281000 35004KT P6SM SHRA OVC035
      TEMPO 2810/2813 4SM TS OVC025CB
     FM281300 03007KT P6SM SHRA VCTS OVC025CB
     FM282000 35006KT P6SM VCSH OVC025
     FM290100 33004KT P6SM BKN120=

USA.gov is the U.S. government's official web portal to all federal, state and local government web resources and services.